SBOSBO JMK / LGMK
Speedbird OnlineSpeedbird Online JMK / LGMK

Mikonos Airport
03:16 23.8°C

Location Mykonos, Greece
Latitude: 37.43510055541992
Longitude: 25.348100662231445
Local Time 03:16 on 22 Jun 2024
UTC +3 hours (Europe/Athens)
Currency £1 equals EUR 1.18
METAR LGMK 212250Z 02016KT CAVOK 25/17 Q1008
TAF TAF LGMK 212300Z 2200/2209 01018G28KT CAVOK
Weather As Of 22 Jun 2024 03:16
Description Clear sky
Wind 46 km/h from North (346°)
Cloud Cover 0%
Precipitation Rain: none, Snow: none
Sunrise 05:58
Sunset 20:42
NOTAM 18 active NOTAM
Rotations During the last 90 days there were
30 flights from LHR
9 flights from LCY
6 flights from LGW
31 flights to LHR
9 flights to LCY
5 flights to LGW
Lounges CIP Lounge by Goldair, Main Terminal Building
Web Wikipedia
Codes IATA: JMK
ICAO: LGMK
Altitude 123 Meter / 405 Feet
Distance 2,519 KM / 1,565 Miles
from London.
Runways
RunwayLength (m)Surface
161902Asphalt
341902Asphalt
Radio
TypeDescriptionFrequency
A/GRDO563.7
APPAPP118.75
TWRTWR118.75
Live ATC



Support Speedbird Online

© 2017-2024 Speedbird Online